createdAt,value
2019-04-01T00:01:40.784Z,13.30
2019-04-01T00:04:09.463Z,13.32
2019-04-01T00:06:37.999Z,14.20
2019-04-01T00:09:07.127Z,13.15
2019-04-01T00:11:35.663Z,13.88
2019-04-01T00:14:04.259Z,13.32
2019-04-01T00:16:32.890Z,13.62
2019-04-01T00:19:03.452Z,13.40
2019-04-01T00:21:31.540Z,14.65
2019-04-01T00:24:00.041Z,12.73
2019-04-01T00:26:28.587Z,14.30
2019-04-01T00:28:57.134Z,14.47
2019-04-01T00:31:25.708Z,13.95
2019-04-01T00:33:54.177Z,14.15
2019-04-01T00:36:22.707Z,13.88
2019-04-01T00:38:51.283Z,13.95
2019-04-01T00:41:19.815Z,14.63
2019-04-01T00:43:52.171Z,14.43
2019-04-01T00:46:20.799Z,13.88
2019-04-01T00:48:49.288Z,15.20
2019-04-01T00:51:17.829Z,15.00
2019-04-01T00:53:46.398Z,15.00
2019-04-01T00:56:14.940Z,14.23
2019-04-01T00:58:43.404Z,13.95
2019-04-01T01:01:11.978Z,14.60
2019-04-01T01:03:40.761Z,14.55
2019-04-01T01:06:09.242Z,12.50
2019-04-01T01:08:37.750Z,12.30
2019-04-01T01:11:06.296Z,13.25
2019-04-01T01:13:34.820Z,11.97
2019-04-01T01:16:03.485Z,13.55
2019-04-01T01:18:31.940Z,11.13
2019-04-01T01:21:00.481Z,11.75
2019-04-01T01:23:28.984Z,11.10
2019-04-01T01:25:57.450Z,11.53
2019-04-01T01:28:25.991Z,10.68
2019-04-01T01:30:54.491Z,10.75
2019-04-01T01:33:23.019Z,10.68
2019-04-01T01:35:51.567Z,9.83
2019-04-01T01:38:20.060Z,9.88
2019-04-01T01:40:48.601Z,10.43
2019-04-01T01:43:17.127Z,10.80
2019-04-01T01:45:45.632Z,11.05
2019-04-01T01:48:14.210Z,10.82
2019-04-01T01:50:42.692Z,10.13
2019-04-01T01:53:11.192Z,11.10
2019-04-01T01:55:39.647Z,9.75
2019-04-01T01:58:08.179Z,9.95
2019-04-01T02:00:38.244Z,10.58
2019-04-01T02:03:06.707Z,9.80
2019-04-01T02:05:35.965Z,10.48
2019-04-01T02:08:04.674Z,10.05
2019-04-01T02:10:34.954Z,11.25
2019-04-01T02:13:03.496Z,9.68
2019-04-01T02:15:31.987Z,9.85
2019-04-01T02:18:00.463Z,9.40
2019-04-01T02:20:28.920Z,9.65
2019-04-01T02:22:57.412Z,8.10
2019-04-01T02:25:25.955Z,8.53
2019-04-01T02:27:54.420Z,8.88
2019-04-01T02:30:22.911Z,7.95
2019-04-01T02:32:51.443Z,7.45
2019-04-01T02:35:19.977Z,7.40
2019-04-01T02:37:48.654Z,6.75
2019-04-01T02:40:21.631Z,7.13
2019-04-01T02:42:47.428Z,6.45
2019-04-01T02:45:16.001Z,6.03
2019-04-01T02:47:44.645Z,6.20
2019-04-01T02:50:13.244Z,5.83
2019-04-01T02:52:41.875Z,5.70
2019-04-01T02:55:10.415Z,5.03
2019-04-01T02:57:38.955Z,6.00
2019-04-01T03:00:08.564Z,5.78
2019-04-01T03:02:37.099Z,5.55
2019-04-01T03:05:06.226Z,5.12
2019-04-01T03:07:35.649Z,5.67
2019-04-01T03:10:05.746Z,5.33
2019-04-01T03:12:34.206Z,4.87
2019-04-01T03:15:02.794Z,5.05
2019-04-01T03:17:31.320Z,5.47
2019-04-01T03:19:59.845Z,5.28
2019-04-01T03:22:28.413Z,5.15
2019-04-01T03:24:56.951Z,5.22
2019-04-01T03:27:25.476Z,5.10
2019-04-01T03:29:53.977Z,4.92
2019-04-01T03:32:22.433Z,5.05
2019-04-01T03:34:50.985Z,5.12
2019-04-01T03:37:19.557Z,4.50
2019-04-01T03:39:48.103Z,4.75
2019-04-01T03:42:16.684Z,4.75
2019-04-01T03:44:45.174Z,5.50
2019-04-01T03:47:13.700Z,4.85
2019-04-01T03:49:42.163Z,5.15
2019-04-01T03:52:10.773Z,5.12
2019-04-01T03:54:39.377Z,5.00
2019-04-01T03:57:07.918Z,4.90
2019-04-01T03:59:36.515Z,5.72
2019-04-01T04:02:05.236Z,5.47
2019-04-01T04:04:33.772Z,3.80
2019-04-01T04:07:02.356Z,5.58
2019-04-01T04:09:32.048Z,4.65
2019-04-01T04:14:28.341Z,4.85
2019-04-01T04:16:56.800Z,5.08
2019-04-01T04:19:25.298Z,5.80
2019-04-01T04:21:53.925Z,5.30
2019-04-01T04:24:23.037Z,5.85
2019-04-01T04:26:51.573Z,18.77
2019-04-01T04:29:20.072Z,6.45
2019-04-01T04:31:48.679Z,5.50
2019-04-01T04:34:17.246Z,10.53
2019-04-01T04:36:45.828Z,6.60
2019-04-01T04:39:14.373Z,6.58
2019-04-01T04:41:42.837Z,6.85
2019-04-01T04:44:11.471Z,6.03
2019-04-01T04:46:39.925Z,6.67
2019-04-01T04:49:08.392Z,6.42
2019-04-01T04:51:36.896Z,7.17
2019-04-01T04:54:05.436Z,5.85
2019-04-01T04:56:33.930Z,6.72
2019-04-01T04:59:02.480Z,6.75
2019-04-01T05:01:30.945Z,7.87
2019-04-01T05:03:59.495Z,8.63
2019-04-01T05:06:28.129Z,8.93
2019-04-01T05:08:56.656Z,8.60
2019-04-01T05:11:25.600Z,8.35
2019-04-01T05:13:54.436Z,8.20
2019-04-01T05:16:23.103Z,9.90
2019-04-01T05:18:51.578Z,8.78
2019-04-01T05:21:20.417Z,9.88
2019-04-01T05:23:50.991Z,19.35
2019-04-01T05:26:21.569Z,21.62
2019-04-01T05:28:51.212Z,11.43
2019-04-01T05:31:21.616Z,8.80
2019-04-01T05:33:55.527Z,8.83
2019-04-01T05:36:24.823Z,7.30
2019-04-01T05:38:53.427Z,8.00
2019-04-01T05:41:22.034Z,6.97
2019-04-01T05:43:50.811Z,7.30
2019-04-01T05:46:19.419Z,10.65
2019-04-01T05:48:48.127Z,7.50
2019-04-01T05:51:16.808Z,7.75
2019-04-01T05:53:46.113Z,6.33
2019-04-01T05:56:14.740Z,6.35
2019-04-01T05:58:43.333Z,5.65
2019-04-01T06:01:28.914Z,5.70
2019-04-01T06:03:57.485Z,4.55
2019-04-01T06:06:26.148Z,5.28
2019-04-01T06:08:54.873Z,4.83
2019-04-01T06:11:23.451Z,5.60
2019-04-01T06:13:52.271Z,4.30
2019-04-01T06:16:21.183Z,5.00
2019-04-01T06:18:49.848Z,5.25
2019-04-01T06:21:18.484Z,5.15
2019-04-01T06:23:47.012Z,5.60
2019-04-01T06:26:15.606Z,5.45
2019-04-01T06:28:44.225Z,5.70
2019-04-01T06:31:12.763Z,5.47
2019-04-01T06:33:42.942Z,5.47
2019-04-01T06:36:11.752Z,5.75
2019-04-01T06:38:40.284Z,5.30
2019-04-01T06:41:08.849Z,5.90
2019-04-01T06:43:37.302Z,6.03
2019-04-01T06:46:05.908Z,5.92
2019-04-01T06:48:34.585Z,5.75
2019-04-01T06:51:03.108Z,5.53
2019-04-01T06:53:31.806Z,6.50
2019-04-01T06:56:00.684Z,6.17
2019-04-01T06:58:29.295Z,5.87
2019-04-01T07:01:01.535Z,5.45
2019-04-01T07:03:30.087Z,6.08
2019-04-01T07:06:11.912Z,5.65
2019-04-01T07:08:40.880Z,5.33
2019-04-01T07:11:22.222Z,5.08
2019-04-01T07:13:51.296Z,5.25
2019-04-01T07:16:39.927Z,5.60
2019-04-01T07:18:57.492Z,4.87
2019-04-01T07:21:26.031Z,5.25
2019-04-01T07:24:00.934Z,4.83
2019-04-01T07:26:29.637Z,4.78
2019-04-01T07:28:58.111Z,4.40
2019-04-01T07:31:32.464Z,5.25
2019-04-01T07:34:01.383Z,5.28
2019-04-01T07:36:29.913Z,4.90
2019-04-01T07:38:58.386Z,4.72
2019-04-01T07:41:27.165Z,4.20
2019-04-01T07:43:55.760Z,5.03
2019-04-01T07:46:24.379Z,4.00
2019-04-01T07:48:53.042Z,4.00
2019-04-01T07:51:24.866Z,3.93
2019-04-01T07:53:53.724Z,2.85
2019-04-01T07:56:22.901Z,3.10
2019-04-01T07:58:51.702Z,3.98
2019-04-01T08:01:20.323Z,4.00
2019-04-01T08:03:49.230Z,4.47
2019-04-01T08:06:17.832Z,4.33
2019-04-01T08:08:46.504Z,3.55
2019-04-01T08:11:15.007Z,3.27
2019-04-01T08:13:43.608Z,3.20
2019-04-01T08:16:12.090Z,3.27
2019-04-01T08:18:40.903Z,3.05
2019-04-01T08:21:09.564Z,3.13
2019-04-01T08:23:38.090Z,3.27
2019-04-01T08:26:06.692Z,2.90
2019-04-01T08:28:35.409Z,2.80
2019-04-01T08:31:04.060Z,2.60
2019-04-01T08:33:32.882Z,2.65
2019-04-01T08:36:01.451Z,3.17
2019-04-01T08:38:30.120Z,2.85
2019-04-01T08:40:59.050Z,2.70
2019-04-01T08:43:27.854Z,2.67
2019-04-01T08:45:56.405Z,2.97
2019-04-01T08:48:25.055Z,2.90
2019-04-01T08:50:53.648Z,2.85
2019-04-01T08:53:22.104Z,2.60
2019-04-01T08:55:50.679Z,2.70
2019-04-01T08:58:19.856Z,2.85
2019-04-01T09:00:48.659Z,2.90
2019-04-01T09:03:17.484Z,2.37
2019-04-01T09:05:46.278Z,2.53
2019-04-01T09:08:15.118Z,2.15
2019-04-01T09:10:43.700Z,2.58
2019-04-01T09:13:13.693Z,3.10
2019-04-01T09:15:42.865Z,3.20
2019-04-01T09:18:11.360Z,2.40
2019-04-01T09:20:40.205Z,2.80
2019-04-01T09:23:08.749Z,3.22
2019-04-01T09:25:37.328Z,2.87
2019-04-01T09:28:05.868Z,2.67
2019-04-01T09:30:36.174Z,2.62
2019-04-01T09:33:04.888Z,2.42
2019-04-01T09:35:33.594Z,3.10
2019-04-01T09:38:03.287Z,2.58
2019-04-01T09:43:01.630Z,2.62
2019-04-01T09:45:31.880Z,2.83
2019-04-01T09:48:00.505Z,2.50
2019-04-01T09:50:29.029Z,2.80
2019-04-01T09:52:57.599Z,3.35
2019-04-01T09:55:26.444Z,2.90
2019-04-01T09:57:55.098Z,2.87
2019-04-01T10:00:24.816Z,3.17
2019-04-01T10:02:56.396Z,2.90
2019-04-01T10:05:26.522Z,2.30
2019-04-01T10:07:55.533Z,2.60
2019-04-01T10:10:25.309Z,3.02
2019-04-01T10:15:23.853Z,2.50
2019-04-01T10:17:52.399Z,2.72
2019-04-01T10:20:21.275Z,2.65
2019-04-01T10:22:51.195Z,2.98
2019-04-01T10:25:19.992Z,2.42
2019-04-01T10:27:48.899Z,3.08
2019-04-01T10:30:18.478Z,3.42
2019-04-01T10:32:48.599Z,2.80
2019-04-01T10:35:18.724Z,3.00
2019-04-01T10:37:48.708Z,2.60
2019-04-01T10:40:18.464Z,2.85
2019-04-01T10:42:47.307Z,3.08
2019-04-01T10:45:16.270Z,3.05
2019-04-01T10:47:46.410Z,2.90
2019-04-01T10:50:15.491Z,2.60
2019-04-01T10:52:47.220Z,2.67
2019-04-01T10:55:17.430Z,4.17
2019-04-01T10:57:46.377Z,3.70
2019-04-01T11:00:18.518Z,3.83
2019-04-01T11:02:50.152Z,4.33
2019-04-01T11:05:21.161Z,3.47
2019-04-01T11:07:55.942Z,5.78
2019-04-01T11:10:24.461Z,5.22
2019-04-01T11:12:53.816Z,4.92
2019-04-01T11:15:25.359Z,4.50
2019-04-01T11:17:55.521Z,4.45
2019-04-01T11:20:27.015Z,4.92
2019-04-01T11:22:55.571Z,4.70
2019-04-01T11:25:24.449Z,2.83
2019-04-01T11:27:53.245Z,3.12
2019-04-01T11:30:21.827Z,3.23
2019-04-01T11:32:50.503Z,2.87
2019-04-01T11:35:19.110Z,2.87
2019-04-01T11:37:47.831Z,2.90
2019-04-01T11:40:16.612Z,2.90
2019-04-01T11:42:45.221Z,3.50
2019-04-01T11:45:14.131Z,3.15
2019-04-01T11:47:42.763Z,2.60
2019-04-01T11:50:11.510Z,2.75
2019-04-01T11:52:40.150Z,2.22
2019-04-01T11:55:09.587Z,2.40
2019-04-01T12:00:12.645Z,1.98
2019-04-01T12:02:41.240Z,2.17
2019-04-01T12:05:09.950Z,2.35
2019-04-01T12:07:38.586Z,1.97
2019-04-01T12:10:08.035Z,2.30
2019-04-01T12:12:36.751Z,2.55
2019-04-01T12:15:06.655Z,2.60
2019-04-01T12:17:35.327Z,2.33
2019-04-01T12:20:05.110Z,2.60
2019-04-01T12:22:33.721Z,2.60
2019-04-01T12:27:24.055Z,2.40
2019-04-01T12:29:52.833Z,2.60
2019-04-01T12:32:21.534Z,2.62
2019-04-01T12:34:50.141Z,2.50
2019-04-01T12:37:18.743Z,2.57
2019-04-01T12:39:54.158Z,2.70
2019-04-01T12:42:22.825Z,2.60
2019-04-01T12:44:51.361Z,2.23
2019-04-01T12:47:19.838Z,2.95
2019-04-01T12:49:48.468Z,3.07
2019-04-01T12:52:17.991Z,2.30
2019-04-01T12:54:46.780Z,2.65
2019-04-01T12:57:18.538Z,2.40
2019-04-01T12:59:45.966Z,2.35
2019-04-01T13:02:17.927Z,2.50
2019-04-01T13:04:44.949Z,2.72
2019-04-01T13:07:13.547Z,2.30
2019-04-01T13:09:42.095Z,2.67
2019-04-01T13:12:10.747Z,2.17
2019-04-01T13:14:40.234Z,2.37
2019-04-01T13:17:09.090Z,3.00
2019-04-01T13:19:37.718Z,2.58
2019-04-01T13:22:06.334Z,2.58
2019-04-01T13:24:34.874Z,2.65
2019-04-01T13:27:03.586Z,2.40
2019-04-01T13:29:32.493Z,2.12
2019-04-01T13:32:01.108Z,2.45
2019-04-01T13:34:29.668Z,2.60
2019-04-01T13:36:58.149Z,3.00
2019-04-01T13:39:26.746Z,2.98
2019-04-01T13:41:56.360Z,2.60
2019-04-01T13:44:36.140Z,2.58
2019-04-01T13:46:56.058Z,3.02
2019-04-01T13:51:52.603Z,3.90
2019-04-01T13:54:21.140Z,4.12
2019-04-01T13:56:49.718Z,3.60
2019-04-01T13:59:18.263Z,2.67
2019-04-01T14:01:46.849Z,3.37
2019-04-01T14:04:15.350Z,3.40
2019-04-01T14:06:43.891Z,2.83
2019-04-01T14:09:15.422Z,2.70
2019-04-01T14:11:44.139Z,2.90
2019-04-01T14:14:12.682Z,2.83
2019-04-01T14:16:41.564Z,2.40
2019-04-01T14:19:10.416Z,3.08
2019-04-01T14:21:38.876Z,2.43
2019-04-01T14:24:07.340Z,2.70
2019-04-01T14:26:35.914Z,2.23
2019-04-01T14:29:04.553Z,2.57
2019-04-01T14:31:33.145Z,2.50
2019-04-01T14:34:01.652Z,2.60
2019-04-01T14:36:30.190Z,2.90
2019-04-01T14:38:58.648Z,3.17
2019-04-01T14:41:27.212Z,2.40
2019-04-01T14:43:55.688Z,2.43
2019-04-01T14:46:24.240Z,2.13
2019-04-01T14:48:52.873Z,2.60
2019-04-01T14:51:21.324Z,2.40
2019-04-01T14:53:49.797Z,2.95
2019-04-01T14:56:18.368Z,2.27
2019-04-01T14:58:46.904Z,3.20
2019-04-01T15:01:18.116Z,2.77
2019-04-01T15:03:48.333Z,3.00
2019-04-01T15:06:17.134Z,3.10
2019-04-01T15:08:46.005Z,3.30
2019-04-01T15:11:14.562Z,2.90
2019-04-01T15:13:43.087Z,3.10
2019-04-01T15:16:11.625Z,3.27
2019-04-01T15:18:40.188Z,2.98
2019-04-01T15:21:11.483Z,3.80
2019-04-01T15:23:38.886Z,3.35
2019-04-01T15:26:07.376Z,3.92
2019-04-01T15:28:35.919Z,2.50
2019-04-01T15:31:04.544Z,2.60
2019-04-01T15:33:33.774Z,3.10
2019-04-01T15:36:04.192Z,3.02
2019-04-01T15:38:32.544Z,3.40
2019-04-01T15:41:01.035Z,2.93
2019-04-01T15:43:29.564Z,3.70
2019-04-01T15:45:58.025Z,3.22
2019-04-01T15:48:26.673Z,2.77
2019-04-01T15:50:55.133Z,2.90
2019-04-01T15:53:23.702Z,2.75
2019-04-01T15:55:52.278Z,3.20
2019-04-01T15:58:20.732Z,3.80
2019-04-01T16:00:49.410Z,3.25
2019-04-01T16:03:17.999Z,3.10
2019-04-01T16:05:46.629Z,2.90
2019-04-01T16:08:15.214Z,2.87
2019-04-01T16:10:43.946Z,2.65
2019-04-01T16:13:14.152Z,2.50
2019-04-01T16:15:42.881Z,3.35
2019-04-01T16:18:11.444Z,3.77
2019-04-01T16:20:39.981Z,4.50
2019-04-01T16:23:10.179Z,4.20
2019-04-01T16:25:38.720Z,3.20
2019-04-01T16:28:07.272Z,3.45
2019-04-01T16:30:35.817Z,4.03
2019-04-01T16:33:04.394Z,3.52
2019-04-01T16:35:33.528Z,3.90
2019-04-01T16:38:01.989Z,4.15
2019-04-01T16:40:30.561Z,4.20
2019-04-01T16:42:59.106Z,4.08
2019-04-01T16:45:27.578Z,4.47
2019-04-01T16:47:56.169Z,4.20
2019-04-01T16:50:24.711Z,5.20
2019-04-01T16:52:53.321Z,5.50
2019-04-01T16:55:21.956Z,5.80
2019-04-01T16:57:50.492Z,5.83
2019-04-01T17:00:19.891Z,5.62
2019-04-01T17:02:50.024Z,6.33
2019-04-01T17:05:21.772Z,6.67
2019-04-01T17:07:50.343Z,6.83
2019-04-01T17:10:23.426Z,6.37
2019-04-01T17:12:51.976Z,6.87
2019-04-01T17:15:21.418Z,6.47
2019-04-01T17:17:50.549Z,7.10
2019-04-01T17:20:19.221Z,7.33
2019-04-01T17:22:47.918Z,7.28
2019-04-01T17:25:16.589Z,8.90
2019-04-01T17:27:45.137Z,7.70
2019-04-01T17:30:14.514Z,6.67
2019-04-01T17:32:43.089Z,6.25
2019-04-01T17:35:13.061Z,6.03
2019-04-01T17:37:42.067Z,5.75
2019-04-01T17:40:12.267Z,5.50
2019-04-01T17:42:40.975Z,5.85
2019-04-01T17:45:24.814Z,7.23
2019-04-01T17:47:53.410Z,6.00
2019-04-01T17:50:23.544Z,6.97
2019-04-01T17:52:53.781Z,5.65
2019-04-01T17:55:22.285Z,6.20
2019-04-01T17:57:50.851Z,6.45
2019-04-01T18:00:26.858Z,5.60
2019-04-01T18:02:58.405Z,5.62
2019-04-01T18:05:28.401Z,5.87
2019-04-01T18:07:56.973Z,6.53
2019-04-01T18:10:25.556Z,6.62
2019-04-01T18:12:54.052Z,8.05
2019-04-01T18:15:22.798Z,7.50
2019-04-01T18:17:51.359Z,8.43
2019-04-01T18:20:20.377Z,9.03
2019-04-01T18:22:49.130Z,9.20
2019-04-01T18:25:17.674Z,8.90
2019-04-01T18:27:46.160Z,7.92
2019-04-01T18:30:16.361Z,8.30
2019-04-01T18:32:44.921Z,8.75
2019-04-01T18:35:13.531Z,8.28
2019-04-01T18:37:42.097Z,8.25
2019-04-01T18:40:11.227Z,7.90
2019-04-01T18:42:39.723Z,7.67
2019-04-01T18:45:08.796Z,8.55
2019-04-01T18:47:38.884Z,8.13
2019-04-01T18:50:07.669Z,7.92
2019-04-01T18:52:36.249Z,7.87
2019-04-01T18:55:07.847Z,8.23
2019-04-01T18:57:36.206Z,8.55
2019-04-01T19:00:07.971Z,8.78
2019-04-01T19:02:36.520Z,8.13
2019-04-01T19:05:05.701Z,8.70
2019-04-01T19:07:35.231Z,7.47
2019-04-01T19:12:35.830Z,7.37
2019-04-01T19:15:09.889Z,8.23
2019-04-01T19:17:38.989Z,8.15
2019-04-01T19:20:08.579Z,9.33
2019-04-01T19:22:37.275Z,9.05
2019-04-01T19:25:07.272Z,8.30
2019-04-01T19:27:35.987Z,8.30
2019-04-01T19:30:06.753Z,9.93
2019-04-01T19:32:35.422Z,8.78
2019-04-01T19:35:05.413Z,10.20
2019-04-01T19:37:34.050Z,9.80
2019-04-01T19:40:02.608Z,8.05
2019-04-01T19:42:33.461Z,9.00
2019-04-01T19:45:02.114Z,8.15
2019-04-01T19:47:30.648Z,8.58
2019-04-01T19:49:59.291Z,7.42
2019-04-01T19:52:27.832Z,7.97
2019-04-01T19:54:56.443Z,7.90
2019-04-01T19:57:25.014Z,8.18
2019-04-01T19:59:54.411Z,7.45
2019-04-01T20:02:23.459Z,7.40
2019-04-01T20:04:52.256Z,8.03
2019-04-01T20:07:21.160Z,7.25
2019-04-01T20:09:49.855Z,9.00
2019-04-01T20:12:18.390Z,9.37
2019-04-01T20:14:48.259Z,8.80
2019-04-01T20:17:16.817Z,8.13
2019-04-01T20:19:45.268Z,7.58
2019-04-01T20:22:13.817Z,7.80
2019-04-01T20:24:42.371Z,7.17
2019-04-01T20:27:10.944Z,7.42
2019-04-01T20:29:40.298Z,7.37
2019-04-01T20:32:17.186Z,7.47
2019-04-01T20:34:39.225Z,8.25
2019-04-01T20:37:07.784Z,7.90
2019-04-01T20:39:36.275Z,7.45
2019-04-01T20:42:07.245Z,6.33
2019-04-01T20:44:36.048Z,7.35
2019-04-01T20:47:06.128Z,8.00
2019-04-01T20:49:34.668Z,7.40
2019-04-01T20:52:03.316Z,7.45
2019-04-01T20:54:31.864Z,7.33
2019-04-01T20:57:00.411Z,8.18
2019-04-01T20:59:29.004Z,7.55
2019-04-01T21:01:57.552Z,7.87
2019-04-01T21:04:26.951Z,7.78
2019-04-01T21:09:26.328Z,6.95
2019-04-01T21:11:54.804Z,6.95
2019-04-01T21:14:23.440Z,6.90
2019-04-01T21:17:11.253Z,7.12
2019-04-01T21:19:39.776Z,7.97
2019-04-01T21:22:08.479Z,7.90
2019-04-01T21:24:39.846Z,7.80
2019-04-01T21:27:08.892Z,8.63
2019-04-01T21:29:37.429Z,8.40
2019-04-01T21:32:05.895Z,9.18
2019-04-01T21:34:34.545Z,8.23
2019-04-01T21:37:03.487Z,9.78
2019-04-01T21:39:32.115Z,9.20
2019-04-01T21:42:00.613Z,8.98
2019-04-01T21:44:29.149Z,9.55
2019-04-01T21:46:57.748Z,9.33
2019-04-01T21:49:26.248Z,9.18
2019-04-01T21:51:54.949Z,8.35
2019-04-01T21:54:23.401Z,8.48
2019-04-01T21:56:52.139Z,9.33
2019-04-01T21:59:20.932Z,7.72
2019-04-01T22:01:49.463Z,9.98
2019-04-01T22:04:18.103Z,10.05
2019-04-01T22:06:46.647Z,10.48
2019-04-01T22:09:15.249Z,9.53
2019-04-01T22:11:43.809Z,8.83
2019-04-01T22:14:12.336Z,9.45
2019-04-01T22:16:40.947Z,9.13
2019-04-01T22:19:09.510Z,8.63
2019-04-01T22:21:38.271Z,10.10
2019-04-01T22:24:06.804Z,9.18
2019-04-01T22:26:35.317Z,9.15
2019-04-01T22:29:03.861Z,8.38
2019-04-01T22:31:32.395Z,8.48
2019-04-01T22:34:01.012Z,9.05
2019-04-01T22:36:31.159Z,9.73
2019-04-01T22:38:59.713Z,8.70
2019-04-01T22:41:29.375Z,8.60
2019-04-01T22:43:58.409Z,7.53
2019-04-01T22:46:26.875Z,7.65
2019-04-01T22:48:55.804Z,7.20
2019-04-01T22:51:24.405Z,6.53
2019-04-01T22:53:52.860Z,6.70
2019-04-01T22:56:21.353Z,6.35
2019-04-01T22:58:51.102Z,6.60
2019-04-01T23:01:19.752Z,5.25
2019-04-01T23:03:48.241Z,5.85
2019-04-01T23:06:16.782Z,6.05
2019-04-01T23:08:45.311Z,6.10
2019-04-01T23:11:13.863Z,5.97
2019-04-01T23:13:42.334Z,5.65
2019-04-01T23:16:10.792Z,5.53
2019-04-01T23:18:39.273Z,5.65
2019-04-01T23:21:07.738Z,5.25
2019-04-01T23:23:36.292Z,5.10
2019-04-01T23:26:04.857Z,5.10
2019-04-01T23:28:33.313Z,5.10
2019-04-01T23:31:01.854Z,5.50
2019-04-01T23:33:30.344Z,5.10
2019-04-01T23:35:58.813Z,5.05
2019-04-01T23:38:27.349Z,5.97
2019-04-01T23:40:55.936Z,6.10
2019-04-01T23:43:25.989Z,5.40
2019-04-01T23:45:54.790Z,5.35
2019-04-01T23:48:23.356Z,5.50
2019-04-01T23:50:52.299Z,5.30
2019-04-01T23:53:20.767Z,3.92
2019-04-01T23:55:49.325Z,5.30
2019-04-01T23:58:17.784Z,5.10
